Terminal Aerodrome Forecast
Issued by NWS Charleston, WV

Current Version | Previous Version | Graphics & Text | Print | Product List | Glossary On
Versions: 1 2 3 4 5 6 7 8 9 10 11 12 13 14 15 16 17 18 19 20 21 22 23 24 25 26 27 28
000
FTUS41 KRLX 222337
TAFHTS
TAF
KHTS 222337Z 2300/2324 19007KT 6SM SHRA OVC050
      TEMPO 2300/2304 4SM SHRA OVC025
     FM230600 19007KT P6SM OVC025
     FM231500 21009KT P6SM -SHRA VCTS OVC035CB
     FM232000 22011KT 5SM SHRA VCTS OVC045CB=

USA.gov is the U.S. government's official web portal to all federal, state and local government web resources and services.